sensor_id;sensor_type;location;lat;lon;timestamp;temperature;humidity
18434;DHT22;9344;52.294;13.626;2022-09-09T00:01:46;17.40;99.90
18434;DHT22;9344;52.294;13.626;2022-09-09T00:04:24;17.40;99.90
18434;DHT22;9344;52.294;13.626;2022-09-09T00:06:59;17.40;99.90
18434;DHT22;9344;52.294;13.626;2022-09-09T00:09:29;17.40;99.90
18434;DHT22;9344;52.294;13.626;2022-09-09T00:12:01;17.40;99.90
18434;DHT22;9344;52.294;13.626;2022-09-09T00:14:36;17.40;99.90
18434;DHT22;9344;52.294;13.626;2022-09-09T00:17:08;17.30;99.90
18434;DHT22;9344;52.294;13.626;2022-09-09T00:19:41;17.30;99.90
18434;DHT22;9344;52.294;13.626;2022-09-09T00:22:16;17.20;99.90
18434;DHT22;9344;52.294;13.626;2022-09-09T00:24:45;17.20;99.90
18434;DHT22;9344;52.294;13.626;2022-09-09T00:27:19;17.20;99.90
18434;DHT22;9344;52.294;13.626;2022-09-09T00:29:52;17.20;99.90
18434;DHT22;9344;52.294;13.626;2022-09-09T00:32:20;17.20;99.90
18434;DHT22;9344;52.294;13.626;2022-09-09T00:34:49;17.10;99.90
18434;DHT22;9344;52.294;13.626;2022-09-09T00:37:19;17.10;99.90
18434;DHT22;9344;52.294;13.626;2022-09-09T00:39:47;17.10;99.90
18434;DHT22;9344;52.294;13.626;2022-09-09T00:42:18;17.00;99.90
18434;DHT22;9344;52.294;13.626;2022-09-09T00:44:52;15.20;99.90
18434;DHT22;9344;52.294;13.626;2022-09-09T00:47:36;17.00;99.90
18434;DHT22;9344;52.294;13.626;2022-09-09T00:50:17;17.00;99.90
18434;DHT22;9344;52.294;13.626;2022-09-09T00:52:59;17.00;99.90
18434;DHT22;9344;52.294;13.626;2022-09-09T00:55:35;17.00;99.90
18434;DHT22;9344;52.294;13.626;2022-09-09T00:58:08;17.00;99.90
18434;DHT22;9344;52.294;13.626;2022-09-09T01:00:42;17.00;99.90
18434;DHT22;9344;52.294;13.626;2022-09-09T01:03:19;16.90;99.90
18434;DHT22;9344;52.294;13.626;2022-09-09T01:05:54;16.90;99.90
18434;DHT22;9344;52.294;13.626;2022-09-09T01:08:36;16.90;99.90
18434;DHT22;9344;52.294;13.626;2022-09-09T01:11:09;16.90;99.90
18434;DHT22;9344;52.294;13.626;2022-09-09T01:13:41;16.90;99.90
18434;DHT22;9344;52.294;13.626;2022-09-09T01:16:10;16.80;99.90
18434;DHT22;9344;52.294;13.626;2022-09-09T01:18:40;16.80;99.90
18434;DHT22;9344;52.294;13.626;2022-09-09T01:21:16;16.80;99.90
18434;DHT22;9344;52.294;13.626;2022-09-09T01:26:38;16.70;99.90
18434;DHT22;9344;52.294;13.626;2022-09-09T01:29:08;16.70;99.90
18434;DHT22;9344;52.294;13.626;2022-09-09T01:31:38;16.70;99.90
18434;DHT22;9344;52.294;13.626;2022-09-09T01:34:10;16.70;99.90
18434;DHT22;9344;52.294;13.626;2022-09-09T01:36:40;16.60;99.90
18434;DHT22;9344;52.294;13.626;2022-09-09T01:39:08;16.60;99.90
18434;DHT22;9344;52.294;13.626;2022-09-09T01:41:37;16.60;99.90
18434;DHT22;9344;52.294;13.626;2022-09-09T01:44:05;16.60;99.90
18434;DHT22;9344;52.294;13.626;2022-09-09T01:46:32;16.70;99.90
18434;DHT22;9344;52.294;13.626;2022-09-09T01:48:59;16.60;99.90
18434;DHT22;9344;52.294;13.626;2022-09-09T01:51:27;16.60;99.90
18434;DHT22;9344;52.294;13.626;2022-09-09T01:53:53;16.60;99.90
18434;DHT22;9344;52.294;13.626;2022-09-09T01:56:33;16.60;99.90
18434;DHT22;9344;52.294;13.626;2022-09-09T01:59:11;16.60;99.90
18434;DHT22;9344;52.294;13.626;2022-09-09T02:01:52;16.60;99.90
18434;DHT22;9344;52.294;13.626;2022-09-09T02:04:32;16.50;99.90
18434;DHT22;9344;52.294;13.626;2022-09-09T02:07:01;16.50;99.90
18434;DHT22;9344;52.294;13.626;2022-09-09T02:09:30;16.40;99.90
18434;DHT22;9344;52.294;13.626;2022-09-09T02:12:01;16.50;99.90
18434;DHT22;9344;52.294;13.626;2022-09-09T02:14:36;16.50;99.90
18434;DHT22;9344;52.294;13.626;2022-09-09T02:17:09;16.50;99.90
18434;DHT22;9344;52.294;13.626;2022-09-09T02:19:39;16.40;99.90
18434;DHT22;9344;52.294;13.626;2022-09-09T02:22:07;16.40;99.90
18434;DHT22;9344;52.294;13.626;2022-09-09T02:24:37;16.40;99.90
18434;DHT22;9344;52.294;13.626;2022-09-09T02:27:07;16.40;99.90
18434;DHT22;9344;52.294;13.626;2022-09-09T02:29:38;16.40;99.90
18434;DHT22;9344;52.294;13.626;2022-09-09T02:32:09;16.30;99.90
18434;DHT22;9344;52.294;13.626;2022-09-09T02:34:40;16.30;99.90
18434;DHT22;9344;52.294;13.626;2022-09-09T02:37:09;16.30;99.90
18434;DHT22;9344;52.294;13.626;2022-09-09T02:39:37;16.10;99.90
18434;DHT22;9344;52.294;13.626;2022-09-09T02:42:04;16.20;99.90
18434;DHT22;9344;52.294;13.626;2022-09-09T02:44:32;16.20;99.90
18434;DHT22;9344;52.294;13.626;2022-09-09T02:47:12;16.20;99.90
18434;DHT22;9344;52.294;13.626;2022-09-09T02:49:45;16.20;99.90
18434;DHT22;9344;52.294;13.626;2022-09-09T02:52:18;16.10;99.90
18434;DHT22;9344;52.294;13.626;2022-09-09T02:54:49;16.10;99.90
18434;DHT22;9344;52.294;13.626;2022-09-09T02:57:22;16.10;99.90
18434;DHT22;9344;52.294;13.626;2022-09-09T02:59:50;16.10;99.90
18434;DHT22;9344;52.294;13.626;2022-09-09T03:02:18;16.10;99.90
18434;DHT22;9344;52.294;13.626;2022-09-09T03:04:45;16.10;99.90
18434;DHT22;9344;52.294;13.626;2022-09-09T03:07:16;16.10;99.90
18434;DHT22;9344;52.294;13.626;2022-09-09T03:09:42;16.10;99.90
18434;DHT22;9344;52.294;13.626;2022-09-09T03:12:09;16.10;99.90
18434;DHT22;9344;52.294;13.626;2022-09-09T03:14:36;16.10;99.90
18434;DHT22;9344;52.294;13.626;2022-09-09T03:17:03;16.10;99.90
18434;DHT22;9344;52.294;13.626;2022-09-09T03:19:32;16.10;99.90
18434;DHT22;9344;52.294;13.626;2022-09-09T03:22:01;16.10;99.90
18434;DHT22;9344;52.294;13.626;2022-09-09T03:24:29;16.00;99.90
18434;DHT22;9344;52.294;13.626;2022-09-09T03:26:56;16.00;99.90
18434;DHT22;9344;52.294;13.626;2022-09-09T03:29:22;16.00;99.90
18434;DHT22;9344;52.294;13.626;2022-09-09T03:31:49;16.00;99.90
18434;DHT22;9344;52.294;13.626;2022-09-09T03:34:16;16.00;99.90
18434;DHT22;9344;52.294;13.626;2022-09-09T03:36:44;16.00;99.90
18434;DHT22;9344;52.294;13.626;2022-09-09T03:39:11;16.00;99.90
18434;DHT22;9344;52.294;13.626;2022-09-09T03:41:38;15.90;99.90
18434;DHT22;9344;52.294;13.626;2022-09-09T03:44:04;15.90;99.90
18434;DHT22;9344;52.294;13.626;2022-09-09T03:46:31;15.90;99.90
18434;DHT22;9344;52.294;13.626;2022-09-09T03:48:57;15.90;99.90
18434;DHT22;9344;52.294;13.626;2022-09-09T03:51:24;15.90;99.90
18434;DHT22;9344;52.294;13.626;2022-09-09T03:53:51;15.90;99.90
18434;DHT22;9344;52.294;13.626;2022-09-09T03:56:23;15.90;99.90
18434;DHT22;9344;52.294;13.626;2022-09-09T03:58:50;15.90;99.90
18434;DHT22;9344;52.294;13.626;2022-09-09T04:01:16;15.90;99.90
18434;DHT22;9344;52.294;13.626;2022-09-09T04:03:43;15.90;99.90
18434;DHT22;9344;52.294;13.626;2022-09-09T04:06:11;15.80;99.90
18434;DHT22;9344;52.294;13.626;2022-09-09T04:08:38;15.90;99.90
18434;DHT22;9344;52.294;13.626;2022-09-09T04:11:07;15.80;99.90
18434;DHT22;9344;52.294;13.626;2022-09-09T04:13:34;15.80;99.90
18434;DHT22;9344;52.294;13.626;2022-09-09T04:16:03;15.80;99.90
18434;DHT22;9344;52.294;13.626;2022-09-09T04:18:30;15.80;99.90
18434;DHT22;9344;52.294;13.626;2022-09-09T04:20:57;15.70;99.90
18434;DHT22;9344;52.294;13.626;2022-09-09T04:23:24;15.80;99.90
18434;DHT22;9344;52.294;13.626;2022-09-09T04:25:53;15.80;99.90
18434;DHT22;9344;52.294;13.626;2022-09-09T04:28:23;15.80;99.90
18434;DHT22;9344;52.294;13.626;2022-09-09T04:30:50;15.80;99.90
18434;DHT22;9344;52.294;13.626;2022-09-09T04:33:18;15.80;99.90
18434;DHT22;9344;52.294;13.626;2022-09-09T04:35:46;15.70;99.90
18434;DHT22;9344;52.294;13.626;2022-09-09T04:38:14;15.70;99.90
18434;DHT22;9344;52.294;13.626;2022-09-09T04:40:42;15.70;99.90
18434;DHT22;9344;52.294;13.626;2022-09-09T04:43:09;15.70;99.90
18434;DHT22;9344;52.294;13.626;2022-09-09T04:45:37;15.70;99.90
18434;DHT22;9344;52.294;13.626;2022-09-09T04:48:05;15.70;99.90
18434;DHT22;9344;52.294;13.626;2022-09-09T04:50:32;15.60;99.90
18434;DHT22;9344;52.294;13.626;2022-09-09T04:53:00;15.60;99.90
18434;DHT22;9344;52.294;13.626;2022-09-09T04:55:27;15.60;99.90
18434;DHT22;9344;52.294;13.626;2022-09-09T04:57:54;15.70;99.90
18434;DHT22;9344;52.294;13.626;2022-09-09T05:00:20;15.70;99.90
18434;DHT22;9344;52.294;13.626;2022-09-09T05:02:48;15.60;99.90
18434;DHT22;9344;52.294;13.626;2022-09-09T05:05:15;15.70;99.90
18434;DHT22;9344;52.294;13.626;2022-09-09T05:07:41;15.70;99.90
18434;DHT22;9344;52.294;13.626;2022-09-09T05:10:08;16.60;99.90
18434;DHT22;9344;52.294;13.626;2022-09-09T05:12:35;15.70;99.90
18434;DHT22;9344;52.294;13.626;2022-09-09T05:15:02;15.70;99.90
18434;DHT22;9344;52.294;13.626;2022-09-09T05:17:29;15.80;99.90
18434;DHT22;9344;52.294;13.626;2022-09-09T05:19:57;15.80;99.90
18434;DHT22;9344;52.294;13.626;2022-09-09T05:22:24;15.90;99.90
18434;DHT22;9344;52.294;13.626;2022-09-09T05:24:50;15.90;99.90
18434;DHT22;9344;52.294;13.626;2022-09-09T05:27:17;16.00;99.90
18434;DHT22;9344;52.294;13.626;2022-09-09T05:29:44;16.00;99.90
18434;DHT22;9344;52.294;13.626;2022-09-09T05:32:11;16.00;99.90
18434;DHT22;9344;52.294;13.626;2022-09-09T05:34:39;16.10;99.90
18434;DHT22;9344;52.294;13.626;2022-09-09T05:37:06;16.10;99.90
18434;DHT22;9344;52.294;13.626;2022-09-09T05:39:33;16.10;99.90
18434;DHT22;9344;52.294;13.626;2022-09-09T05:42:01;16.10;99.90
18434;DHT22;9344;52.294;13.626;2022-09-09T05:44:28;16.20;99.90
18434;DHT22;9344;52.294;13.626;2022-09-09T05:46:54;16.20;99.90
18434;DHT22;9344;52.294;13.626;2022-09-09T05:49:21;16.30;99.90
18434;DHT22;9344;52.294;13.626;2022-09-09T05:51:47;16.30;99.90
18434;DHT22;9344;52.294;13.626;2022-09-09T05:54:17;16.40;99.90
18434;DHT22;9344;52.294;13.626;2022-09-09T05:56:43;16.50;99.90
18434;DHT22;9344;52.294;13.626;2022-09-09T05:59:10;16.60;99.90
18434;DHT22;9344;52.294;13.626;2022-09-09T06:01:37;16.70;99.90
18434;DHT22;9344;52.294;13.626;2022-09-09T06:04:05;16.90;99.90
18434;DHT22;9344;52.294;13.626;2022-09-09T06:06:33;17.00;99.90
18434;DHT22;9344;52.294;13.626;2022-09-09T06:09:03;16.90;99.90
18434;DHT22;9344;52.294;13.626;2022-09-09T06:11:35;17.10;99.90
18434;DHT22;9344;52.294;13.626;2022-09-09T06:14:02;17.20;99.90
18434;DHT22;9344;52.294;13.626;2022-09-09T06:16:30;17.30;99.90
18434;DHT22;9344;52.294;13.626;2022-09-09T06:18:58;17.30;99.90
18434;DHT22;9344;52.294;13.626;2022-09-09T06:21:26;17.40;99.90
18434;DHT22;9344;52.294;13.626;2022-09-09T06:23:53;17.50;99.90
18434;DHT22;9344;52.294;13.626;2022-09-09T06:26:21;17.50;99.90
18434;DHT22;9344;52.294;13.626;2022-09-09T06:28:52;17.60;99.90
18434;DHT22;9344;52.294;13.626;2022-09-09T06:31:20;17.80;99.90
18434;DHT22;9344;52.294;13.626;2022-09-09T06:33:47;17.90;99.90
18434;DHT22;9344;52.294;13.626;2022-09-09T06:36:16;17.80;99.90
18434;DHT22;9344;52.294;13.626;2022-09-09T06:38:44;17.80;99.90
18434;DHT22;9344;52.294;13.626;2022-09-09T06:41:12;17.90;99.90
18434;DHT22;9344;52.294;13.626;2022-09-09T06:43:39;17.90;99.90
18434;DHT22;9344;52.294;13.626;2022-09-09T06:46:10;17.90;99.90
18434;DHT22;9344;52.294;13.626;2022-09-09T06:48:38;18.00;99.90
18434;DHT22;9344;52.294;13.626;2022-09-09T06:51:07;18.00;99.90
18434;DHT22;9344;52.294;13.626;2022-09-09T06:53:36;18.10;99.90
18434;DHT22;9344;52.294;13.626;2022-09-09T06:56:18;18.00;99.90
18434;DHT22;9344;52.294;13.626;2022-09-09T06:58:45;18.10;99.90
18434;DHT22;9344;52.294;13.626;2022-09-09T07:01:15;18.10;99.90
18434;DHT22;9344;52.294;13.626;2022-09-09T07:03:45;18.10;99.90
18434;DHT22;9344;52.294;13.626;2022-09-09T07:06:14;18.20;99.90
18434;DHT22;9344;52.294;13.626;2022-09-09T07:08:42;18.20;99.90
18434;DHT22;9344;52.294;13.626;2022-09-09T07:11:09;18.30;99.90
18434;DHT22;9344;52.294;13.626;2022-09-09T07:13:36;18.30;99.90
18434;DHT22;9344;52.294;13.626;2022-09-09T07:16:04;18.40;99.90
18434;DHT22;9344;52.294;13.626;2022-09-09T07:18:33;18.50;99.90
18434;DHT22;9344;52.294;13.626;2022-09-09T07:21:00;18.50;99.90
18434;DHT22;9344;52.294;13.626;2022-09-09T07:23:27;18.60;99.90
18434;DHT22;9344;52.294;13.626;2022-09-09T07:25:54;18.80;99.90
18434;DHT22;9344;52.294;13.626;2022-09-09T07:28:21;18.80;99.90
18434;DHT22;9344;52.294;13.626;2022-09-09T07:30:53;18.90;71.00
18434;DHT22;9344;52.294;13.626;2022-09-09T07:33:20;18.90;65.60
18434;DHT22;9344;52.294;13.626;2022-09-09T07:35:47;18.90;57.70
18434;DHT22;9344;52.294;13.626;2022-09-09T07:38:14;18.90;1.00
18434;DHT22;9344;52.294;13.626;2022-09-09T07:40:41;18.90;1.00
18434;DHT22;9344;52.294;13.626;2022-09-09T07:43:07;18.80;1.00
18434;DHT22;9344;52.294;13.626;2022-09-09T07:45:34;18.90;32.90
18434;DHT22;9344;52.294;13.626;2022-09-09T07:48:01;19.00;43.10
18434;DHT22;9344;52.294;13.626;2022-09-09T07:50:28;19.10;52.90
18434;DHT22;9344;52.294;13.626;2022-09-09T07:52:56;19.30;99.90
18434;DHT22;9344;52.294;13.626;2022-09-09T07:55:23;19.40;66.20
18434;DHT22;9344;52.294;13.626;2022-09-09T07:57:52;19.40;30.30
18434;DHT22;9344;52.294;13.626;2022-09-09T08:00:19;19.60;1.00
18434;DHT22;9344;52.294;13.626;2022-09-09T08:02:47;19.70;1.00
18434;DHT22;9344;52.294;13.626;2022-09-09T08:05:14;19.80;1.00
18434;DHT22;9344;52.294;13.626;2022-09-09T08:07:42;19.90;1.00
18434;DHT22;9344;52.294;13.626;2022-09-09T08:10:10;19.80;1.00
18434;DHT22;9344;52.294;13.626;2022-09-09T08:12:39;19.70;1.00
18434;DHT22;9344;52.294;13.626;2022-09-09T08:15:06;19.70;1.00
18434;DHT22;9344;52.294;13.626;2022-09-09T08:17:33;19.70;1.00
18434;DHT22;9344;52.294;13.626;2022-09-09T08:20:00;19.70;1.00
18434;DHT22;9344;52.294;13.626;2022-09-09T08:22:29;19.70;1.00
18434;DHT22;9344;52.294;13.626;2022-09-09T08:24:56;19.70;1.00
18434;DHT22;9344;52.294;13.626;2022-09-09T08:27:24;19.70;1.00
18434;DHT22;9344;52.294;13.626;2022-09-09T08:29:51;19.70;1.00
18434;DHT22;9344;52.294;13.626;2022-09-09T08:32:18;19.70;1.00
18434;DHT22;9344;52.294;13.626;2022-09-09T08:34:45;19.80;1.00
18434;DHT22;9344;52.294;13.626;2022-09-09T08:37:11;19.90;1.00
18434;DHT22;9344;52.294;13.626;2022-09-09T08:39:38;20.10;1.00
18434;DHT22;9344;52.294;13.626;2022-09-09T08:42:14;20.20;1.00
18434;DHT22;9344;52.294;13.626;2022-09-09T08:44:58;20.30;1.00
18434;DHT22;9344;52.294;13.626;2022-09-09T08:47:35;20.50;1.00
18434;DHT22;9344;52.294;13.626;2022-09-09T08:50:13;20.80;1.00
18434;DHT22;9344;52.294;13.626;2022-09-09T08:52:49;21.10;99.90
18434;DHT22;9344;52.294;13.626;2022-09-09T08:55:27;21.20;99.90
18434;DHT22;9344;52.294;13.626;2022-09-09T08:57:57;21.40;1.00
18434;DHT22;9344;52.294;13.626;2022-09-09T09:00:35;21.20;1.00
18434;DHT22;9344;52.294;13.626;2022-09-09T09:03:12;21.20;1.00
18434;DHT22;9344;52.294;13.626;2022-09-09T09:05:47;21.40;1.00
18434;DHT22;9344;52.294;13.626;2022-09-09T09:08:20;21.60;1.00
18434;DHT22;9344;52.294;13.626;2022-09-09T09:10:49;21.60;1.00
18434;DHT22;9344;52.294;13.626;2022-09-09T09:13:18;21.60;99.90
18434;DHT22;9344;52.294;13.626;2022-09-09T09:15:52;21.80;1.00
18434;DHT22;9344;52.294;13.626;2022-09-09T09:18:22;21.80;99.90
18434;DHT22;9344;52.294;13.626;2022-09-09T09:20:53;21.90;37.60
18434;DHT22;9344;52.294;13.626;2022-09-09T09:23:23;22.00;31.80
18434;DHT22;9344;52.294;13.626;2022-09-09T09:25:53;22.10;99.90
18434;DHT22;9344;52.294;13.626;2022-09-09T09:28:24;22.20;1.00
18434;DHT22;9344;52.294;13.626;2022-09-09T09:30:55;22.10;1.00
18434;DHT22;9344;52.294;13.626;2022-09-09T09:33:26;22.00;99.90
18434;DHT22;9344;52.294;13.626;2022-09-09T09:35:54;22.10;1.00
18434;DHT22;9344;52.294;13.626;2022-09-09T09:38:22;22.10;1.00
18434;DHT22;9344;52.294;13.626;2022-09-09T09:40:51;22.10;22.10
18434;DHT22;9344;52.294;13.626;2022-09-09T09:43:24;22.20;1.00
18434;DHT22;9344;52.294;13.626;2022-09-09T09:45:54;22.20;1.00
18434;DHT22;9344;52.294;13.626;2022-09-09T09:48:23;22.10;1.00
18434;DHT22;9344;52.294;13.626;2022-09-09T09:50:51;22.20;99.90
18434;DHT22;9344;52.294;13.626;2022-09-09T09:53:22;22.40;1.00
18434;DHT22;9344;52.294;13.626;2022-09-09T09:55:56;22.40;99.90
18434;DHT22;9344;52.294;13.626;2022-09-09T09:58:25;22.30;99.90
18434;DHT22;9344;52.294;13.626;2022-09-09T10:00:54;22.30;99.90
18434;DHT22;9344;52.294;13.626;2022-09-09T10:03:24;22.50;1.00
18434;DHT22;9344;52.294;13.626;2022-09-09T10:05:51;22.60;1.00
18434;DHT22;9344;52.294;13.626;2022-09-09T10:08:19;22.70;1.00
18434;DHT22;9344;52.294;13.626;2022-09-09T10:11:06;22.90;1.00
18434;DHT22;9344;52.294;13.626;2022-09-09T10:13:47;23.00;99.90
18434;DHT22;9344;52.294;13.626;2022-09-09T10:16:25;23.10;99.90
18434;DHT22;9344;52.294;13.626;2022-09-09T10:18:59;23.10;1.00
18434;DHT22;9344;52.294;13.626;2022-09-09T10:21:57;23.20;55.90
18434;DHT22;9344;52.294;13.626;2022-09-09T10:24:54;23.20;99.90
18434;DHT22;9344;52.294;13.626;2022-09-09T10:27:28;23.40;1.00
18434;DHT22;9344;52.294;13.626;2022-09-09T10:30:04;23.30;1.00
18434;DHT22;9344;52.294;13.626;2022-09-09T10:32:41;23.20;1.00
18434;DHT22;9344;52.294;13.626;2022-09-09T10:35:24;23.20;1.00
18434;DHT22;9344;52.294;13.626;2022-09-09T10:40:58;23.10;1.00
18434;DHT22;9344;52.294;13.626;2022-09-09T10:43:40;23.30;1.00
18434;DHT22;9344;52.294;13.626;2022-09-09T10:46:17;23.30;99.90
18434;DHT22;9344;52.294;13.626;2022-09-09T10:49:00;23.20;99.90
18434;DHT22;9344;52.294;13.626;2022-09-09T10:51:35;23.10;1.00
18434;DHT22;9344;52.294;13.626;2022-09-09T10:54:15;23.10;1.00
18434;DHT22;9344;52.294;13.626;2022-09-09T10:56:56;23.00;1.00
18434;DHT22;9344;52.294;13.626;2022-09-09T10:59:26;23.00;99.90
18434;DHT22;9344;52.294;13.626;2022-09-09T11:01:58;23.10;1.00
18434;DHT22;9344;52.294;13.626;2022-09-09T11:04:31;23.20;99.90
18434;DHT22;9344;52.294;13.626;2022-09-09T11:07:08;23.20;99.90
18434;DHT22;9344;52.294;13.626;2022-09-09T11:09:40;23.30;99.90
18434;DHT22;9344;52.294;13.626;2022-09-09T11:12:12;23.30;1.00
18434;DHT22;9344;52.294;13.626;2022-09-09T11:14:44;23.40;1.00
18434;DHT22;9344;52.294;13.626;2022-09-09T11:17:15;23.50;1.00
18434;DHT22;9344;52.294;13.626;2022-09-09T11:19:44;23.40;1.00
18434;DHT22;9344;52.294;13.626;2022-09-09T11:22:18;23.50;1.00
18434;DHT22;9344;52.294;13.626;2022-09-09T11:24:50;23.70;1.00
18434;DHT22;9344;52.294;13.626;2022-09-09T11:27:21;23.90;99.90
18434;DHT22;9344;52.294;13.626;2022-09-09T11:30:17;24.10;1.00
18434;DHT22;9344;52.294;13.626;2022-09-09T11:35:47;24.10;1.00
18434;DHT22;9344;52.294;13.626;2022-09-09T11:38:20;24.40;1.00
18434;DHT22;9344;52.294;13.626;2022-09-09T11:40:54;24.60;99.90
18434;DHT22;9344;52.294;13.626;2022-09-09T11:43:25;24.60;99.90
18434;DHT22;9344;52.294;13.626;2022-09-09T11:45:55;24.80;1.00
18434;DHT22;9344;52.294;13.626;2022-09-09T11:48:28;24.80;80.60
18434;DHT22;9344;52.294;13.626;2022-09-09T11:51:02;24.90;99.90
18434;DHT22;9344;52.294;13.626;2022-09-09T11:53:30;25.00;99.90
18434;DHT22;9344;52.294;13.626;2022-09-09T11:56:23;25.00;1.00
18434;DHT22;9344;52.294;13.626;2022-09-09T11:58:55;24.80;89.00
18434;DHT22;9344;52.294;13.626;2022-09-09T12:01:29;24.70;1.00
18434;DHT22;9344;52.294;13.626;2022-09-09T12:04:16;24.70;1.00
18434;DHT22;9344;52.294;13.626;2022-09-09T12:06:46;24.80;1.00
18434;DHT22;9344;52.294;13.626;2022-09-09T12:09:19;24.90;1.00
18434;DHT22;9344;52.294;13.626;2022-09-09T12:11:48;24.90;1.00
18434;DHT22;9344;52.294;13.626;2022-09-09T12:14:23;24.90;99.90
18434;DHT22;9344;52.294;13.626;2022-09-09T12:17:09;24.90;1.00
18434;DHT22;9344;52.294;13.626;2022-09-09T12:19:36;25.00;99.90
18434;DHT22;9344;52.294;13.626;2022-09-09T12:22:07;25.10;1.00
18434;DHT22;9344;52.294;13.626;2022-09-09T12:24:44;25.20;1.00
18434;DHT22;9344;52.294;13.626;2022-09-09T12:27:17;25.20;99.90
18434;DHT22;9344;52.294;13.626;2022-09-09T12:29:51;25.10;1.00
18434;DHT22;9344;52.294;13.626;2022-09-09T12:32:23;25.10;99.90
18434;DHT22;9344;52.294;13.626;2022-09-09T12:34:54;25.20;99.90
18434;DHT22;9344;52.294;13.626;2022-09-09T12:37:29;25.20;99.90
18434;DHT22;9344;52.294;13.626;2022-09-09T12:39:59;25.30;1.00
18434;DHT22;9344;52.294;13.626;2022-09-09T12:42:27;25.40;4.90
18434;DHT22;9344;52.294;13.626;2022-09-09T12:44:56;25.60;1.00
18434;DHT22;9344;52.294;13.626;2022-09-09T12:47:36;25.60;1.00
18434;DHT22;9344;52.294;13.626;2022-09-09T12:50:15;25.70;1.00
18434;DHT22;9344;52.294;13.626;2022-09-09T12:52:44;25.70;1.00
18434;DHT22;9344;52.294;13.626;2022-09-09T12:55:17;25.70;1.00
18434;DHT22;9344;52.294;13.626;2022-09-09T12:57:44;25.60;1.00
18434;DHT22;9344;52.294;13.626;2022-09-09T13:00:15;25.60;1.00
18434;DHT22;9344;52.294;13.626;2022-09-09T13:02:50;25.60;1.00
18434;DHT22;9344;52.294;13.626;2022-09-09T13:05:20;25.70;1.00
18434;DHT22;9344;52.294;13.626;2022-09-09T13:07:48;25.80;1.00
18434;DHT22;9344;52.294;13.626;2022-09-09T13:10:21;26.00;1.00
18434;DHT22;9344;52.294;13.626;2022-09-09T13:12:49;26.20;1.00
18434;DHT22;9344;52.294;13.626;2022-09-09T13:15:21;26.20;1.00
18434;DHT22;9344;52.294;13.626;2022-09-09T13:17:51;25.90;1.00
18434;DHT22;9344;52.294;13.626;2022-09-09T13:20:20;25.90;1.00
18434;DHT22;9344;52.294;13.626;2022-09-09T13:22:49;25.80;1.00
18434;DHT22;9344;52.294;13.626;2022-09-09T13:25:20;25.70;1.00
18434;DHT22;9344;52.294;13.626;2022-09-09T13:27:57;25.70;1.00
18434;DHT22;9344;52.294;13.626;2022-09-09T13:30:27;25.70;1.00
18434;DHT22;9344;52.294;13.626;2022-09-09T13:33:04;25.70;1.00
18434;DHT22;9344;52.294;13.626;2022-09-09T13:35:32;25.60;1.00
18434;DHT22;9344;52.294;13.626;2022-09-09T13:38:07;25.70;1.00
18434;DHT22;9344;52.294;13.626;2022-09-09T13:40:34;25.70;1.00
18434;DHT22;9344;52.294;13.626;2022-09-09T13:43:02;25.50;1.00
18434;DHT22;9344;52.294;13.626;2022-09-09T13:45:29;25.50;1.00
18434;DHT22;9344;52.294;13.626;2022-09-09T13:47:55;25.50;1.00
18434;DHT22;9344;52.294;13.626;2022-09-09T13:50:24;25.40;1.00
18434;DHT22;9344;52.294;13.626;2022-09-09T13:52:52;25.40;1.00
18434;DHT22;9344;52.294;13.626;2022-09-09T13:55:22;25.40;1.00
18434;DHT22;9344;52.294;13.626;2022-09-09T13:57:53;25.40;1.00
18434;DHT22;9344;52.294;13.626;2022-09-09T14:00:21;25.30;1.00
18434;DHT22;9344;52.294;13.626;2022-09-09T14:02:49;25.20;1.00
18434;DHT22;9344;52.294;13.626;2022-09-09T14:05:17;25.10;1.00
18434;DHT22;9344;52.294;13.626;2022-09-09T14:07:44;25.00;1.00
18434;DHT22;9344;52.294;13.626;2022-09-09T14:10:11;25.00;1.00
18434;DHT22;9344;52.294;13.626;2022-09-09T14:12:39;26.80;1.00
18434;DHT22;9344;52.294;13.626;2022-09-09T14:15:09;24.90;1.00
18434;DHT22;9344;52.294;13.626;2022-09-09T14:17:36;24.90;1.00
18434;DHT22;9344;52.294;13.626;2022-09-09T14:20:02;24.90;1.00
18434;DHT22;9344;52.294;13.626;2022-09-09T14:22:31;24.90;1.00
18434;DHT22;9344;52.294;13.626;2022-09-09T14:24:57;24.90;1.00
18434;DHT22;9344;52.294;13.626;2022-09-09T14:27:24;24.80;1.00
18434;DHT22;9344;52.294;13.626;2022-09-09T14:29:52;25.00;1.00
18434;DHT22;9344;52.294;13.626;2022-09-09T14:32:20;25.10;1.00
18434;DHT22;9344;52.294;13.626;2022-09-09T14:34:47;25.10;1.00
18434;DHT22;9344;52.294;13.626;2022-09-09T14:37:14;24.90;1.00
18434;DHT22;9344;52.294;13.626;2022-09-09T14:39:41;24.70;1.00
18434;DHT22;9344;52.294;13.626;2022-09-09T14:42:09;24.70;1.00
18434;DHT22;9344;52.294;13.626;2022-09-09T14:44:36;24.70;1.00
18434;DHT22;9344;52.294;13.626;2022-09-09T14:47:05;24.60;1.00
18434;DHT22;9344;52.294;13.626;2022-09-09T14:49:33;24.60;1.00
18434;DHT22;9344;52.294;13.626;2022-09-09T14:52:00;24.50;1.00
18434;DHT22;9344;52.294;13.626;2022-09-09T14:54:26;24.40;1.00
18434;DHT22;9344;52.294;13.626;2022-09-09T14:56:53;24.30;1.00
18434;DHT22;9344;52.294;13.626;2022-09-09T14:59:20;24.20;99.90
18434;DHT22;9344;52.294;13.626;2022-09-09T15:01:47;24.20;99.90
18434;DHT22;9344;52.294;13.626;2022-09-09T15:04:15;24.20;1.00
18434;DHT22;9344;52.294;13.626;2022-09-09T15:06:43;24.30;1.00
18434;DHT22;9344;52.294;13.626;2022-09-09T15:09:13;24.40;1.00
18434;DHT22;9344;52.294;13.626;2022-09-09T15:11:40;24.50;99.90
18434;DHT22;9344;52.294;13.626;2022-09-09T15:14:08;24.40;1.00
18434;DHT22;9344;52.294;13.626;2022-09-09T15:16:35;24.10;1.00
18434;DHT22;9344;52.294;13.626;2022-09-09T15:19:02;24.00;1.00
18434;DHT22;9344;52.294;13.626;2022-09-09T15:21:32;23.40;1.00
18434;DHT22;9344;52.294;13.626;2022-09-09T15:23:59;23.30;99.90
18434;DHT22;9344;52.294;13.626;2022-09-09T15:26:26;23.30;99.90
18434;DHT22;9344;52.294;13.626;2022-09-09T15:28:53;23.40;99.90
18434;DHT22;9344;52.294;13.626;2022-09-09T15:31:22;23.30;1.00
18434;DHT22;9344;52.294;13.626;2022-09-09T15:33:50;23.30;99.90
18434;DHT22;9344;52.294;13.626;2022-09-09T15:36:19;23.30;99.90
18434;DHT22;9344;52.294;13.626;2022-09-09T15:38:47;23.30;1.00
18434;DHT22;9344;52.294;13.626;2022-09-09T15:41:14;23.10;1.00
18434;DHT22;9344;52.294;13.626;2022-09-09T15:43:43;23.10;99.90
18434;DHT22;9344;52.294;13.626;2022-09-09T15:46:26;23.00;1.00
18434;DHT22;9344;52.294;13.626;2022-09-09T15:48:54;23.00;1.00
18434;DHT22;9344;52.294;13.626;2022-09-09T15:51:21;22.90;1.00
18434;DHT22;9344;52.294;13.626;2022-09-09T15:53:53;22.80;1.00
18434;DHT22;9344;52.294;13.626;2022-09-09T15:56:20;22.70;1.00
18434;DHT22;9344;52.294;13.626;2022-09-09T15:58:47;22.40;1.00
18434;DHT22;9344;52.294;13.626;2022-09-09T16:01:13;22.20;1.00
18434;DHT22;9344;52.294;13.626;2022-09-09T16:03:42;22.10;99.90
18434;DHT22;9344;52.294;13.626;2022-09-09T16:06:11;21.90;1.00